sensor_id;sensor_type;location;lat;lon;timestamp;P1;durP1;ratioP1;P2;durP2;ratioP2
11763;SDS011;5939;56.522;14.950;2022-08-18T00:01:50;7.03;;;6.43;;
11763;SDS011;5939;56.522;14.950;2022-08-18T00:04:32;7.53;;;6.67;;
11763;SDS011;5939;56.522;14.950;2022-08-18T00:07:00;7.03;;;6.37;;
11763;SDS011;5939;56.522;14.950;2022-08-18T00:09:26;6.97;;;6.37;;
11763;SDS011;5939;56.522;14.950;2022-08-18T00:11:51;6.70;;;6.10;;
11763;SDS011;5939;56.522;14.950;2022-08-18T00:14:18;6.77;;;6.27;;
11763;SDS011;5939;56.522;14.950;2022-08-18T00:16:45;6.97;;;6.33;;
11763;SDS011;5939;56.522;14.950;2022-08-18T00:19:11;8.23;;;6.40;;
11763;SDS011;5939;56.522;14.950;2022-08-18T00:21:37;6.70;;;6.10;;
11763;SDS011;5939;56.522;14.950;2022-08-18T00:24:03;7.40;;;6.77;;
11763;SDS011;5939;56.522;14.950;2022-08-18T00:26:29;6.77;;;6.27;;
11763;SDS011;5939;56.522;14.950;2022-08-18T00:28:54;7.10;;;6.50;;
11763;SDS011;5939;56.522;14.950;2022-08-18T00:31:20;6.97;;;6.37;;
11763;SDS011;5939;56.522;14.950;2022-08-18T00:33:46;7.20;;;6.60;;
11763;SDS011;5939;56.522;14.950;2022-08-18T00:36:12;6.87;;;6.27;;
11763;SDS011;5939;56.522;14.950;2022-08-18T00:38:37;7.40;;;6.73;;
11763;SDS011;5939;56.522;14.950;2022-08-18T00:41:04;7.70;;;7.03;;
11763;SDS011;5939;56.522;14.950;2022-08-18T00:43:31;6.93;;;6.43;;
11763;SDS011;5939;56.522;14.950;2022-08-18T00:45:59;7.00;;;6.40;;
11763;SDS011;5939;56.522;14.950;2022-08-18T00:48:25;6.27;;;5.67;;
11763;SDS011;5939;56.522;14.950;2022-08-18T00:50:55;7.17;;;6.50;;
11763;SDS011;5939;56.522;14.950;2022-08-18T00:55:49;9.10;;;7.20;;
11763;SDS011;5939;56.522;14.950;2022-08-18T00:58:19;6.90;;;6.40;;
11763;SDS011;5939;56.522;14.950;2022-08-18T01:00:51;6.80;;;6.20;;
11763;SDS011;5939;56.522;14.950;2022-08-18T01:03:18;7.33;;;6.10;;
11763;SDS011;5939;56.522;14.950;2022-08-18T01:05:47;6.53;;;6.03;;
11763;SDS011;5939;56.522;14.950;2022-08-18T01:08:21;7.00;;;6.40;;
11763;SDS011;5939;56.522;14.950;2022-08-18T01:10:47;6.43;;;5.93;;
11763;SDS011;5939;56.522;14.950;2022-08-18T01:13:13;6.60;;;6.10;;
11763;SDS011;5939;56.522;14.950;2022-08-18T01:15:40;6.90;;;6.40;;
11763;SDS011;5939;56.522;14.950;2022-08-18T01:18:06;6.90;;;6.30;;
11763;SDS011;5939;56.522;14.950;2022-08-18T01:21:03;6.97;;;6.37;;
11763;SDS011;5939;56.522;14.950;2022-08-18T01:23:55;6.87;;;6.37;;
11763;SDS011;5939;56.522;14.950;2022-08-18T01:26:23;7.27;;;6.63;;
11763;SDS011;5939;56.522;14.950;2022-08-18T01:28:51;7.03;;;6.43;;
11763;SDS011;5939;56.522;14.950;2022-08-18T01:31:35;6.73;;;6.13;;
11763;SDS011;5939;56.522;14.950;2022-08-18T01:34:06;7.43;;;6.83;;
11763;SDS011;5939;56.522;14.950;2022-08-18T01:36:34;6.43;;;5.93;;
11763;SDS011;5939;56.522;14.950;2022-08-18T01:39:05;7.27;;;6.63;;
11763;SDS011;5939;56.522;14.950;2022-08-18T01:41:32;7.00;;;6.40;;
11763;SDS011;5939;56.522;14.950;2022-08-18T01:43:58;7.07;;;6.47;;
11763;SDS011;5939;56.522;14.950;2022-08-18T01:46:26;6.90;;;6.40;;
11763;SDS011;5939;56.522;14.950;2022-08-18T01:48:54;6.67;;;6.07;;
11763;SDS011;5939;56.522;14.950;2022-08-18T01:51:20;6.97;;;6.27;;
11763;SDS011;5939;56.522;14.950;2022-08-18T01:53:46;6.17;;;5.67;;
11763;SDS011;5939;56.522;14.950;2022-08-18T01:56:12;6.70;;;6.00;;
11763;SDS011;5939;56.522;14.950;2022-08-18T01:58:41;6.73;;;6.13;;
11763;SDS011;5939;56.522;14.950;2022-08-18T02:01:08;6.17;;;5.67;;
11763;SDS011;5939;56.522;14.950;2022-08-18T02:03:38;7.40;;;6.80;;
11763;SDS011;5939;56.522;14.950;2022-08-18T02:06:10;6.40;;;5.90;;
11763;SDS011;5939;56.522;14.950;2022-08-18T02:08:37;6.70;;;6.20;;
11763;SDS011;5939;56.522;14.950;2022-08-18T02:11:04;6.40;;;5.90;;
11763;SDS011;5939;56.522;14.950;2022-08-18T02:13:31;6.67;;;6.13;;
11763;SDS011;5939;56.522;14.950;2022-08-18T02:15:57;6.87;;;6.27;;
11763;SDS011;5939;56.522;14.950;2022-08-18T02:18:25;6.53;;;6.03;;
11763;SDS011;5939;56.522;14.950;2022-08-18T02:20:56;6.33;;;5.83;;
11763;SDS011;5939;56.522;14.950;2022-08-18T02:23:23;6.43;;;5.93;;
11763;SDS011;5939;56.522;14.950;2022-08-18T02:25:49;7.03;;;6.33;;
11763;SDS011;5939;56.522;14.950;2022-08-18T02:28:15;6.20;;;5.70;;
11763;SDS011;5939;56.522;14.950;2022-08-18T02:30:41;6.50;;;5.83;;
11763;SDS011;5939;56.522;14.950;2022-08-18T02:33:08;6.80;;;6.30;;
11763;SDS011;5939;56.522;14.950;2022-08-18T02:35:35;6.43;;;5.83;;
11763;SDS011;5939;56.522;14.950;2022-08-18T02:38:02;6.53;;;6.03;;
11763;SDS011;5939;56.522;14.950;2022-08-18T02:40:29;6.40;;;5.80;;
11763;SDS011;5939;56.522;14.950;2022-08-18T02:42:57;6.87;;;6.23;;
11763;SDS011;5939;56.522;14.950;2022-08-18T02:45:24;6.53;;;6.03;;
11763;SDS011;5939;56.522;14.950;2022-08-18T02:47:53;7.23;;;6.60;;
11763;SDS011;5939;56.522;14.950;2022-08-18T02:50:20;6.60;;;6.00;;
11763;SDS011;5939;56.522;14.950;2022-08-18T02:52:47;7.07;;;6.57;;
11763;SDS011;5939;56.522;14.950;2022-08-18T02:55:13;7.20;;;6.60;;
11763;SDS011;5939;56.522;14.950;2022-08-18T02:57:49;7.07;;;6.47;;
11763;SDS011;5939;56.522;14.950;2022-08-18T03:00:15;6.37;;;5.87;;
11763;SDS011;5939;56.522;14.950;2022-08-18T03:02:49;7.07;;;6.40;;
11763;SDS011;5939;56.522;14.950;2022-08-18T03:05:16;6.83;;;6.23;;
11763;SDS011;5939;56.522;14.950;2022-08-18T03:07:43;6.90;;;6.30;;
11763;SDS011;5939;56.522;14.950;2022-08-18T03:10:09;6.63;;;6.13;;
11763;SDS011;5939;56.522;14.950;2022-08-18T03:12:35;6.90;;;6.20;;
11763;SDS011;5939;56.522;14.950;2022-08-18T03:15:01;6.30;;;5.80;;
11763;SDS011;5939;56.522;14.950;2022-08-18T03:17:27;6.43;;;5.83;;
11763;SDS011;5939;56.522;14.950;2022-08-18T03:19:53;6.43;;;5.93;;
11763;SDS011;5939;56.522;14.950;2022-08-18T03:22:18;7.07;;;5.60;;
11763;SDS011;5939;56.522;14.950;2022-08-18T03:24:44;6.77;;;6.17;;
11763;SDS011;5939;56.522;14.950;2022-08-18T03:27:10;6.57;;;6.07;;
11763;SDS011;5939;56.522;14.950;2022-08-18T03:29:36;7.07;;;6.37;;
11763;SDS011;5939;56.522;14.950;2022-08-18T03:32:03;6.50;;;5.90;;
11763;SDS011;5939;56.522;14.950;2022-08-18T03:34:30;7.40;;;6.80;;
11763;SDS011;5939;56.522;14.950;2022-08-18T03:36:56;7.23;;;6.63;;
11763;SDS011;5939;56.522;14.950;2022-08-18T03:39:22;7.57;;;6.97;;
11763;SDS011;5939;56.522;14.950;2022-08-18T03:41:51;6.47;;;5.97;;
11763;SDS011;5939;56.522;14.950;2022-08-18T03:44:18;7.60;;;6.90;;
11763;SDS011;5939;56.522;14.950;2022-08-18T03:46:46;7.40;;;6.70;;
11763;SDS011;5939;56.522;14.950;2022-08-18T03:49:12;7.20;;;6.60;;
11763;SDS011;5939;56.522;14.950;2022-08-18T03:51:39;7.20;;;6.67;;
11763;SDS011;5939;56.522;14.950;2022-08-18T03:54:07;7.50;;;6.90;;
11763;SDS011;5939;56.522;14.950;2022-08-18T03:56:35;7.27;;;6.57;;
11763;SDS011;5939;56.522;14.950;2022-08-18T03:59:24;7.13;;;6.50;;
11763;SDS011;5939;56.522;14.950;2022-08-18T04:01:50;7.07;;;6.37;;
11763;SDS011;5939;56.522;14.950;2022-08-18T04:04:19;6.97;;;6.37;;
11763;SDS011;5939;56.522;14.950;2022-08-18T04:06:52;8.20;;;6.57;;
11763;SDS011;5939;56.522;14.950;2022-08-18T04:09:20;6.53;;;6.03;;
11763;SDS011;5939;56.522;14.950;2022-08-18T04:11:48;7.03;;;6.53;;
11763;SDS011;5939;56.522;14.950;2022-08-18T04:14:15;6.63;;;6.03;;
11763;SDS011;5939;56.522;14.950;2022-08-18T04:16:43;7.07;;;6.47;;
11763;SDS011;5939;56.522;14.950;2022-08-18T04:19:09;7.10;;;6.50;;
11763;SDS011;5939;56.522;14.950;2022-08-18T04:21:38;5.93;;;5.33;;
11763;SDS011;5939;56.522;14.950;2022-08-18T04:24:06;6.40;;;5.90;;
11763;SDS011;5939;56.522;14.950;2022-08-18T04:26:34;6.43;;;5.93;;
11763;SDS011;5939;56.522;14.950;2022-08-18T04:29:02;5.87;;;5.37;;
11763;SDS011;5939;56.522;14.950;2022-08-18T04:31:29;6.27;;;5.77;;
11763;SDS011;5939;56.522;14.950;2022-08-18T04:33:56;5.97;;;5.47;;
11763;SDS011;5939;56.522;14.950;2022-08-18T04:36:23;6.77;;;6.17;;
11763;SDS011;5939;56.522;14.950;2022-08-18T04:38:50;6.30;;;5.80;;
11763;SDS011;5939;56.522;14.950;2022-08-18T04:41:16;6.73;;;6.23;;
11763;SDS011;5939;56.522;14.950;2022-08-18T04:43:42;6.80;;;6.27;;
11763;SDS011;5939;56.522;14.950;2022-08-18T04:46:08;6.73;;;6.17;;
11763;SDS011;5939;56.522;14.950;2022-08-18T04:48:39;6.83;;;6.20;;
11763;SDS011;5939;56.522;14.950;2022-08-18T04:51:06;6.20;;;5.70;;
11763;SDS011;5939;56.522;14.950;2022-08-18T04:53:36;7.10;;;6.50;;
11763;SDS011;5939;56.522;14.950;2022-08-18T04:58:53;6.20;;;5.70;;
11763;SDS011;5939;56.522;14.950;2022-08-18T05:01:22;6.63;;;6.03;;
11763;SDS011;5939;56.522;14.950;2022-08-18T05:03:50;6.27;;;5.77;;
11763;SDS011;5939;56.522;14.950;2022-08-18T05:06:17;6.50;;;6.00;;
11763;SDS011;5939;56.522;14.950;2022-08-18T05:08:44;6.87;;;6.27;;
11763;SDS011;5939;56.522;14.950;2022-08-18T05:11:12;6.13;;;5.60;;
11763;SDS011;5939;56.522;14.950;2022-08-18T05:13:39;6.60;;;6.00;;
11763;SDS011;5939;56.522;14.950;2022-08-18T05:16:04;7.13;;;6.53;;
11763;SDS011;5939;56.522;14.950;2022-08-18T05:18:32;6.43;;;5.93;;
11763;SDS011;5939;56.522;14.950;2022-08-18T05:21:03;6.77;;;6.07;;
11763;SDS011;5939;56.522;14.950;2022-08-18T05:23:28;6.37;;;5.87;;
11763;SDS011;5939;56.522;14.950;2022-08-18T05:25:56;6.37;;;5.87;;
11763;SDS011;5939;56.522;14.950;2022-08-18T05:28:23;6.70;;;6.10;;
11763;SDS011;5939;56.522;14.950;2022-08-18T05:30:49;6.60;;;6.10;;
11763;SDS011;5939;56.522;14.950;2022-08-18T05:33:15;7.10;;;6.50;;
11763;SDS011;5939;56.522;14.950;2022-08-18T05:35:42;6.57;;;6.07;;
11763;SDS011;5939;56.522;14.950;2022-08-18T05:38:20;7.17;;;6.57;;
11763;SDS011;5939;56.522;14.950;2022-08-18T05:43:39;6.40;;;5.90;;
11763;SDS011;5939;56.522;14.950;2022-08-18T05:46:08;7.30;;;6.70;;
11763;SDS011;5939;56.522;14.950;2022-08-18T05:48:35;7.00;;;6.40;;
11763;SDS011;5939;56.522;14.950;2022-08-18T05:51:03;7.40;;;6.70;;
11763;SDS011;5939;56.522;14.950;2022-08-18T05:53:39;7.53;;;6.93;;
11763;SDS011;5939;56.522;14.950;2022-08-18T05:56:25;7.53;;;6.93;;
11763;SDS011;5939;56.522;14.950;2022-08-18T05:59:16;8.30;;;7.17;;
11763;SDS011;5939;56.522;14.950;2022-08-18T06:01:50;7.47;;;6.87;;
11763;SDS011;5939;56.522;14.950;2022-08-18T06:04:33;7.13;;;6.53;;
11763;SDS011;5939;56.522;14.950;2022-08-18T06:07:08;8.27;;;7.47;;
11763;SDS011;5939;56.522;14.950;2022-08-18T06:09:45;7.43;;;6.77;;
11763;SDS011;5939;56.522;14.950;2022-08-18T06:12:37;7.00;;;6.40;;
11763;SDS011;5939;56.522;14.950;2022-08-18T06:15:07;7.60;;;6.90;;
11763;SDS011;5939;56.522;14.950;2022-08-18T06:18:08;7.57;;;6.57;;
11763;SDS011;5939;56.522;14.950;2022-08-18T06:26:29;7.63;;;7.03;;
11763;SDS011;5939;56.522;14.950;2022-08-18T06:34:53;8.00;;;7.30;;
11763;SDS011;5939;56.522;14.950;2022-08-18T06:37:57;7.73;;;7.13;;
11763;SDS011;5939;56.522;14.950;2022-08-18T06:41:02;8.93;;;7.60;;
11763;SDS011;5939;56.522;14.950;2022-08-18T06:43:31;8.10;;;7.47;;
11763;SDS011;5939;56.522;14.950;2022-08-18T06:45:59;8.73;;;8.03;;
11763;SDS011;5939;56.522;14.950;2022-08-18T06:48:35;8.70;;;8.00;;
11763;SDS011;5939;56.522;14.950;2022-08-18T06:51:07;8.73;;;8.00;;
11763;SDS011;5939;56.522;14.950;2022-08-18T07:02:01;8.83;;;8.03;;
11763;SDS011;5939;56.522;14.950;2022-08-18T07:04:42;9.37;;;8.57;;
11763;SDS011;5939;56.522;14.950;2022-08-18T07:09:56;8.93;;;8.03;;
11763;SDS011;5939;56.522;14.950;2022-08-18T07:12:23;9.07;;;8.17;;
11763;SDS011;5939;56.522;14.950;2022-08-18T07:14:53;9.27;;;8.43;;
11763;SDS011;5939;56.522;14.950;2022-08-18T07:17:28;8.73;;;8.03;;
11763;SDS011;5939;56.522;14.950;2022-08-18T07:20:01;9.00;;;8.17;;
11763;SDS011;5939;56.522;14.950;2022-08-18T07:22:31;8.27;;;7.57;;
11763;SDS011;5939;56.522;14.950;2022-08-18T07:25:18;8.93;;;8.07;;
11763;SDS011;5939;56.522;14.950;2022-08-18T07:27:51;8.73;;;7.87;;
11763;SDS011;5939;56.522;14.950;2022-08-18T07:40:59;8.27;;;7.57;;
11763;SDS011;5939;56.522;14.950;2022-08-18T07:43:35;9.00;;;8.20;;
11763;SDS011;5939;56.522;14.950;2022-08-18T07:49:06;8.37;;;7.67;;
11763;SDS011;5939;56.522;14.950;2022-08-18T07:54:16;8.77;;;8.00;;
11763;SDS011;5939;56.522;14.950;2022-08-18T07:56:48;9.07;;;8.37;;
11763;SDS011;5939;56.522;14.950;2022-08-18T07:59:41;8.63;;;7.80;;
11763;SDS011;5939;56.522;14.950;2022-08-18T08:04:48;8.23;;;7.57;;
11763;SDS011;5939;56.522;14.950;2022-08-18T08:07:34;8.90;;;8.10;;
11763;SDS011;5939;56.522;14.950;2022-08-18T08:13:03;8.97;;;8.17;;
11763;SDS011;5939;56.522;14.950;2022-08-18T08:15:47;8.10;;;7.40;;
11763;SDS011;5939;56.522;14.950;2022-08-18T08:20:46;8.60;;;7.90;;
11763;SDS011;5939;56.522;14.950;2022-08-18T08:23:23;8.00;;;7.37;;
11763;SDS011;5939;56.522;14.950;2022-08-18T08:32:01;8.13;;;7.43;;
11763;SDS011;5939;56.522;14.950;2022-08-18T08:37:47;8.80;;;8.10;;
11763;SDS011;5939;56.522;14.950;2022-08-18T08:40:25;8.40;;;7.70;;
11763;SDS011;5939;56.522;14.950;2022-08-18T08:43:16;7.90;;;7.20;;
11763;SDS011;5939;56.522;14.950;2022-08-18T08:45:49;7.57;;;6.87;;
11763;SDS011;5939;56.522;14.950;2022-08-18T08:48:49;7.60;;;6.87;;
11763;SDS011;5939;56.522;14.950;2022-08-18T08:51:37;8.80;;;8.00;;
11763;SDS011;5939;56.522;14.950;2022-08-18T08:54:13;8.43;;;7.73;;
11763;SDS011;5939;56.522;14.950;2022-08-18T08:56:45;7.60;;;7.00;;
11763;SDS011;5939;56.522;14.950;2022-08-18T08:59:14;7.27;;;6.60;;
11763;SDS011;5939;56.522;14.950;2022-08-18T09:04:20;7.40;;;6.80;;
11763;SDS011;5939;56.522;14.950;2022-08-18T09:09:24;6.97;;;6.37;;
11763;SDS011;5939;56.522;14.950;2022-08-18T09:12:16;7.03;;;6.43;;
11763;SDS011;5939;56.522;14.950;2022-08-18T09:25:53;6.83;;;6.33;;
11763;SDS011;5939;56.522;14.950;2022-08-18T09:42:35;7.33;;;6.63;;
11763;SDS011;5939;56.522;14.950;2022-08-18T09:45:05;6.80;;;6.30;;
11763;SDS011;5939;56.522;14.950;2022-08-18T09:57:34;7.10;;;6.60;;
11763;SDS011;5939;56.522;14.950;2022-08-18T10:08:27;6.73;;;6.23;;
11763;SDS011;5939;56.522;14.950;2022-08-18T10:10:40;6.60;;;6.00;;
11763;SDS011;5939;56.522;14.950;2022-08-18T10:22:41;6.60;;;6.10;;
11763;SDS011;5939;56.522;14.950;2022-08-18T10:25:08;6.93;;;6.33;;
11763;SDS011;5939;56.522;14.950;2022-08-18T10:33:07;7.03;;;6.43;;
11763;SDS011;5939;56.522;14.950;2022-08-18T10:40:26;6.97;;;6.40;;
11763;SDS011;5939;56.522;14.950;2022-08-18T10:42:56;6.70;;;6.00;;
11763;SDS011;5939;56.522;14.950;2022-08-18T10:45:33;6.60;;;6.10;;
11763;SDS011;5939;56.522;14.950;2022-08-18T10:48:12;6.30;;;5.80;;
11763;SDS011;5939;56.522;14.950;2022-08-18T10:53:40;6.60;;;6.10;;
11763;SDS011;5939;56.522;14.950;2022-08-18T10:59:05;6.47;;;5.97;;
11763;SDS011;5939;56.522;14.950;2022-08-18T11:07:02;6.67;;;6.17;;
11763;SDS011;5939;56.522;14.950;2022-08-18T11:09:29;7.33;;;6.67;;
11763;SDS011;5939;56.522;14.950;2022-08-18T11:11:56;7.00;;;6.50;;
11763;SDS011;5939;56.522;14.950;2022-08-18T11:17:07;5.80;;;5.40;;
11763;SDS011;5939;56.522;14.950;2022-08-18T11:19:42;7.03;;;6.47;;
11763;SDS011;5939;56.522;14.950;2022-08-18T11:22:28;7.33;;;6.50;;
11763;SDS011;5939;56.522;14.950;2022-08-18T11:24:56;6.03;;;5.63;;
11763;SDS011;5939;56.522;14.950;2022-08-18T11:27:23;7.03;;;6.43;;
11763;SDS011;5939;56.522;14.950;2022-08-18T11:29:51;6.90;;;6.40;;
11763;SDS011;5939;56.522;14.950;2022-08-18T11:35:00;7.43;;;6.73;;
11763;SDS011;5939;56.522;14.950;2022-08-18T11:42:46;7.23;;;6.63;;
11763;SDS011;5939;56.522;14.950;2022-08-18T11:46:12;6.80;;;6.13;;
11763;SDS011;5939;56.522;14.950;2022-08-18T11:59:04;6.60;;;6.07;;
11763;SDS011;5939;56.522;14.950;2022-08-18T12:01:38;7.30;;;6.60;;
11763;SDS011;5939;56.522;14.950;2022-08-18T12:12:28;7.80;;;7.20;;
11763;SDS011;5939;56.522;14.950;2022-08-18T12:14:59;7.60;;;6.90;;
11763;SDS011;5939;56.522;14.950;2022-08-18T12:17:29;6.93;;;6.33;;
11763;SDS011;5939;56.522;14.950;2022-08-18T12:19:55;7.17;;;6.53;;
11763;SDS011;5939;56.522;14.950;2022-08-18T12:22:31;6.93;;;6.43;;
11763;SDS011;5939;56.522;14.950;2022-08-18T12:24:58;7.03;;;6.10;;
11763;SDS011;5939;56.522;14.950;2022-08-18T12:27:24;7.37;;;6.77;;
11763;SDS011;5939;56.522;14.950;2022-08-18T12:29:52;6.37;;;5.87;;
11763;SDS011;5939;56.522;14.950;2022-08-18T12:32:20;6.40;;;6.00;;
11763;SDS011;5939;56.522;14.950;2022-08-18T12:34:47;7.40;;;6.70;;
11763;SDS011;5939;56.522;14.950;2022-08-18T12:37:14;7.00;;;6.40;;
11763;SDS011;5939;56.522;14.950;2022-08-18T12:39:45;6.50;;;5.90;;
11763;SDS011;5939;56.522;14.950;2022-08-18T12:42:11;6.77;;;6.20;;
11763;SDS011;5939;56.522;14.950;2022-08-18T12:44:37;7.13;;;6.53;;
11763;SDS011;5939;56.522;14.950;2022-08-18T12:47:04;7.17;;;6.43;;
11763;SDS011;5939;56.522;14.950;2022-08-18T12:49:36;6.40;;;5.90;;
11763;SDS011;5939;56.522;14.950;2022-08-18T12:52:01;6.77;;;6.20;;
11763;SDS011;5939;56.522;14.950;2022-08-18T12:54:27;6.70;;;6.20;;
11763;SDS011;5939;56.522;14.950;2022-08-18T12:56:54;6.53;;;6.03;;
11763;SDS011;5939;56.522;14.950;2022-08-18T12:59:21;6.30;;;5.80;;
11763;SDS011;5939;56.522;14.950;2022-08-18T13:01:47;6.40;;;5.80;;
11763;SDS011;5939;56.522;14.950;2022-08-18T13:04:13;6.40;;;5.90;;
11763;SDS011;5939;56.522;14.950;2022-08-18T13:06:43;6.57;;;6.00;;
11763;SDS011;5939;56.522;14.950;2022-08-18T13:09:12;6.50;;;6.00;;
11763;SDS011;5939;56.522;14.950;2022-08-18T13:11:37;6.77;;;6.27;;
11763;SDS011;5939;56.522;14.950;2022-08-18T13:14:03;6.70;;;6.10;;
11763;SDS011;5939;56.522;14.950;2022-08-18T13:16:29;6.40;;;5.80;;
11763;SDS011;5939;56.522;14.950;2022-08-18T13:18:58;6.20;;;5.63;;
11763;SDS011;5939;56.522;14.950;2022-08-18T13:21:23;6.10;;;5.60;;
11763;SDS011;5939;56.522;14.950;2022-08-18T13:23:49;6.03;;;5.57;;
11763;SDS011;5939;56.522;14.950;2022-08-18T13:26:17;6.13;;;5.60;;
11763;SDS011;5939;56.522;14.950;2022-08-18T13:28:53;5.67;;;5.17;;
11763;SDS011;5939;56.522;14.950;2022-08-18T13:31:19;6.07;;;5.57;;
11763;SDS011;5939;56.522;14.950;2022-08-18T13:33:44;6.10;;;5.60;;
11763;SDS011;5939;56.522;14.950;2022-08-18T13:36:10;6.10;;;5.60;;
11763;SDS011;5939;56.522;14.950;2022-08-18T13:38:36;7.10;;;6.50;;
11763;SDS011;5939;56.522;14.950;2022-08-18T13:41:02;5.90;;;5.40;;
11763;SDS011;5939;56.522;14.950;2022-08-18T13:43:33;6.37;;;5.87;;
11763;SDS011;5939;56.522;14.950;2022-08-18T13:46:03;6.90;;;6.30;;
11763;SDS011;5939;56.522;14.950;2022-08-18T13:48:30;5.77;;;5.27;;
11763;SDS011;5939;56.522;14.950;2022-08-18T13:50:56;6.27;;;5.67;;
11763;SDS011;5939;56.522;14.950;2022-08-18T13:53:23;6.33;;;5.83;;
11763;SDS011;5939;56.522;14.950;2022-08-18T13:55:50;6.27;;;5.67;;
11763;SDS011;5939;56.522;14.950;2022-08-18T13:58:16;6.20;;;5.70;;
11763;SDS011;5939;56.522;14.950;2022-08-18T14:00:42;6.20;;;5.70;;
11763;SDS011;5939;56.522;14.950;2022-08-18T14:03:08;7.17;;;6.57;;
11763;SDS011;5939;56.522;14.950;2022-08-18T14:05:35;7.53;;;6.30;;
11763;SDS011;5939;56.522;14.950;2022-08-18T14:08:00;6.90;;;6.20;;
11763;SDS011;5939;56.522;14.950;2022-08-18T14:10:27;6.93;;;6.33;;
11763;SDS011;5939;56.522;14.950;2022-08-18T14:12:54;6.27;;;5.77;;
11763;SDS011;5939;56.522;14.950;2022-08-18T14:15:21;6.87;;;6.37;;
11763;SDS011;5939;56.522;14.950;2022-08-18T14:17:47;6.40;;;5.90;;
11763;SDS011;5939;56.522;14.950;2022-08-18T14:20:14;7.00;;;6.40;;
11763;SDS011;5939;56.522;14.950;2022-08-18T14:22:59;7.17;;;6.50;;
11763;SDS011;5939;56.522;14.950;2022-08-18T14:25:44;7.17;;;6.57;;
11763;SDS011;5939;56.522;14.950;2022-08-18T14:28:29;6.40;;;5.93;;
11763;SDS011;5939;56.522;14.950;2022-08-18T14:30:56;6.77;;;6.17;;
11763;SDS011;5939;56.522;14.950;2022-08-18T14:33:23;6.97;;;6.40;;
11763;SDS011;5939;56.522;14.950;2022-08-18T14:35:51;6.60;;;6.10;;
11763;SDS011;5939;56.522;14.950;2022-08-18T14:38:17;6.87;;;6.27;;
11763;SDS011;5939;56.522;14.950;2022-08-18T14:40:44;6.70;;;6.10;;
11763;SDS011;5939;56.522;14.950;2022-08-18T14:43:11;6.43;;;5.93;;
11763;SDS011;5939;56.522;14.950;2022-08-18T14:45:38;6.80;;;6.10;;
11763;SDS011;5939;56.522;14.950;2022-08-18T14:48:09;6.90;;;6.40;;
11763;SDS011;5939;56.522;14.950;2022-08-18T14:50:35;7.07;;;6.47;;
11763;SDS011;5939;56.522;14.950;2022-08-18T14:53:01;6.83;;;6.23;;
11763;SDS011;5939;56.522;14.950;2022-08-18T14:55:27;6.63;;;6.13;;
11763;SDS011;5939;56.522;14.950;2022-08-18T14:57:53;6.20;;;5.70;;
11763;SDS011;5939;56.522;14.950;2022-08-18T15:00:18;7.03;;;6.43;;
11763;SDS011;5939;56.522;14.950;2022-08-18T15:02:44;6.27;;;5.73;;
11763;SDS011;5939;56.522;14.950;2022-08-18T15:05:13;6.87;;;6.27;;
11763;SDS011;5939;56.522;14.950;2022-08-18T15:07:39;6.90;;;6.40;;
11763;SDS011;5939;56.522;14.950;2022-08-18T15:10:08;6.63;;;6.03;;
11763;SDS011;5939;56.522;14.950;2022-08-18T15:12:36;6.60;;;6.10;;
11763;SDS011;5939;56.522;14.950;2022-08-18T15:15:06;6.40;;;5.90;;
11763;SDS011;5939;56.522;14.950;2022-08-18T15:17:36;6.60;;;6.00;;
11763;SDS011;5939;56.522;14.950;2022-08-18T15:20:03;6.10;;;5.60;;
11763;SDS011;5939;56.522;14.950;2022-08-18T15:22:30;6.77;;;6.07;;
11763;SDS011;5939;56.522;14.950;2022-08-18T15:25:14;6.13;;;5.73;;
11763;SDS011;5939;56.522;14.950;2022-08-18T15:27:59;6.77;;;6.27;;
11763;SDS011;5939;56.522;14.950;2022-08-18T15:30:25;6.47;;;5.87;;
11763;SDS011;5939;56.522;14.950;2022-08-18T15:32:51;6.50;;;6.00;;
11763;SDS011;5939;56.522;14.950;2022-08-18T15:35:17;6.53;;;6.03;;
11763;SDS011;5939;56.522;14.950;2022-08-18T15:37:43;6.53;;;6.03;;
11763;SDS011;5939;56.522;14.950;2022-08-18T15:42:49;6.40;;;5.87;;
11763;SDS011;5939;56.522;14.950;2022-08-18T15:45:18;6.30;;;5.70;;
11763;SDS011;5939;56.522;14.950;2022-08-18T15:47:45;6.50;;;5.87;;
11763;SDS011;5939;56.522;14.950;2022-08-18T15:50:14;6.90;;;6.20;;
11763;SDS011;5939;56.522;14.950;2022-08-18T15:52:50;5.73;;;5.30;;
11763;SDS011;5939;56.522;14.950;2022-08-18T15:55:23;6.20;;;5.60;;
11763;SDS011;5939;56.522;14.950;2022-08-18T15:57:51;6.17;;;5.77;;
11763;SDS011;5939;56.522;14.950;2022-08-18T16:00:17;6.03;;;5.50;;
11763;SDS011;5939;56.522;14.950;2022-08-18T16:02:54;6.87;;;6.27;;
11763;SDS011;5939;56.522;14.950;2022-08-18T16:05:23;6.33;;;5.83;;
11763;SDS011;5939;56.522;14.950;2022-08-18T16:07:50;6.53;;;6.03;;
11763;SDS011;5939;56.522;14.950;2022-08-18T16:10:18;5.97;;;5.57;;
11763;SDS011;5939;56.522;14.950;2022-08-18T16:12:45;6.27;;;5.73;;
11763;SDS011;5939;56.522;14.950;2022-08-18T16:15:12;6.60;;;6.10;;
11763;SDS011;5939;56.522;14.950;2022-08-18T16:17:42;6.43;;;5.83;;
11763;SDS011;5939;56.522;14.950;2022-08-18T16:20:09;6.20;;;5.80;;
11763;SDS011;5939;56.522;14.950;2022-08-18T16:22:35;6.30;;;5.80;;
11763;SDS011;5939;56.522;14.950;2022-08-18T16:25:04;6.30;;;5.80;;
11763;SDS011;5939;56.522;14.950;2022-08-18T16:27:31;6.20;;;5.70;;
11763;SDS011;5939;56.522;14.950;2022-08-18T16:30:05;6.40;;;5.90;;
11763;SDS011;5939;56.522;14.950;2022-08-18T16:32:31;6.47;;;5.87;;
11763;SDS011;5939;56.522;14.950;2022-08-18T16:34:57;5.87;;;5.47;;
11763;SDS011;5939;56.522;14.950;2022-08-18T16:37:23;6.47;;;5.90;;
11763;SDS011;5939;56.522;14.950;2022-08-18T16:39:51;6.40;;;5.80;;
11763;SDS011;5939;56.522;14.950;2022-08-18T16:42:17;6.27;;;5.80;;
11763;SDS011;5939;56.522;14.950;2022-08-18T16:44:43;6.40;;;5.90;;
11763;SDS011;5939;56.522;14.950;2022-08-18T16:47:09;6.47;;;5.87;;
11763;SDS011;5939;56.522;14.950;2022-08-18T16:49:37;6.33;;;5.73;;
11763;SDS011;5939;56.522;14.950;2022-08-18T16:52:03;6.90;;;6.30;;
11763;SDS011;5939;56.522;14.950;2022-08-18T16:54:30;6.10;;;5.60;;
11763;SDS011;5939;56.522;14.950;2022-08-18T16:56:57;6.07;;;5.57;;
11763;SDS011;5939;56.522;14.950;2022-08-18T16:59:23;6.03;;;5.53;;
11763;SDS011;5939;56.522;14.950;2022-08-18T17:02:07;6.40;;;5.90;;
11763;SDS011;5939;56.522;14.950;2022-08-18T17:04:59;6.13;;;5.63;;
11763;SDS011;5939;56.522;14.950;2022-08-18T17:07:29;6.93;;;6.23;;
11763;SDS011;5939;56.522;14.950;2022-08-18T17:09:57;7.50;;;6.80;;
11763;SDS011;5939;56.522;14.950;2022-08-18T17:12:24;7.80;;;7.00;;
11763;SDS011;5939;56.522;14.950;2022-08-18T17:14:51;7.27;;;6.47;;
11763;SDS011;5939;56.522;14.950;2022-08-18T17:17:18;7.47;;;6.77;;
11763;SDS011;5939;56.522;14.950;2022-08-18T17:19:44;8.10;;;7.40;;
11763;SDS011;5939;56.522;14.950;2022-08-18T17:22:11;8.20;;;7.40;;
11763;SDS011;5939;56.522;14.950;2022-08-18T17:24:37;8.23;;;7.43;;
11763;SDS011;5939;56.522;14.950;2022-08-18T17:29:43;8.10;;;7.40;;
11763;SDS011;5939;56.522;14.950;2022-08-18T17:35:20;8.30;;;7.50;;
11763;SDS011;5939;56.522;14.950;2022-08-18T17:38:08;8.13;;;7.37;;
11763;SDS011;5939;56.522;14.950;2022-08-18T17:40:48;8.20;;;7.40;;
11763;SDS011;5939;56.522;14.950;2022-08-18T17:43:18;8.07;;;7.10;;
11763;SDS011;5939;56.522;14.950;2022-08-18T17:45:46;7.87;;;7.17;;
11763;SDS011;5939;56.522;14.950;2022-08-18T17:48:31;7.93;;;7.13;;
11763;SDS011;5939;56.522;14.950;2022-08-18T17:51:09;7.90;;;6.83;;
11763;SDS011;5939;56.522;14.950;2022-08-18T17:54:19;7.70;;;7.00;;
11763;SDS011;5939;56.522;14.950;2022-08-18T17:56:56;7.97;;;7.23;;
11763;SDS011;5939;56.522;14.950;2022-08-18T18:00:13;8.53;;;7.57;;
11763;SDS011;5939;56.522;14.950;2022-08-18T18:02:19;7.50;;;6.90;;
11763;SDS011;5939;56.522;14.950;2022-08-18T18:04:48;8.63;;;7.77;;
11763;SDS011;5939;56.522;14.950;2022-08-18T18:07:24;8.90;;;7.23;;
11763;SDS011;5939;56.522;14.950;2022-08-18T18:10:00;7.67;;;7.00;;